sensor_id;sensor_type;location;lat;lon;timestamp;temperature;humidity
45619;DHT22;31343;47.520;19.144;2022-10-22T00:01:49;11.00;99.90
45619;DHT22;31343;47.520;19.144;2022-10-22T00:04:15;10.90;99.90
45619;DHT22;31343;47.520;19.144;2022-10-22T00:06:41;10.90;99.90
45619;DHT22;31343;47.520;19.144;2022-10-22T00:09:11;10.90;99.90
45619;DHT22;31343;47.520;19.144;2022-10-22T00:11:37;11.00;99.90
45619;DHT22;31343;47.520;19.144;2022-10-22T00:14:03;11.00;99.90
45619;DHT22;31343;47.520;19.144;2022-10-22T00:16:29;11.00;99.90
45619;DHT22;31343;47.520;19.144;2022-10-22T00:18:55;10.90;99.90
45619;DHT22;31343;47.520;19.144;2022-10-22T00:21:20;11.00;99.90
45619;DHT22;31343;47.520;19.144;2022-10-22T00:23:46;11.00;99.90
45619;DHT22;31343;47.520;19.144;2022-10-22T00:26:12;11.00;99.90
45619;DHT22;31343;47.520;19.144;2022-10-22T00:28:38;10.90;99.90
45619;DHT22;31343;47.520;19.144;2022-10-22T00:31:04;10.80;99.90
45619;DHT22;31343;47.520;19.144;2022-10-22T00:33:30;10.80;99.90
45619;DHT22;31343;47.520;19.144;2022-10-22T00:35:56;10.80;99.90
45619;DHT22;31343;47.520;19.144;2022-10-22T00:38:22;10.80;99.90
45619;DHT22;31343;47.520;19.144;2022-10-22T00:40:48;10.80;99.90
45619;DHT22;31343;47.520;19.144;2022-10-22T00:43:16;10.80;99.90
45619;DHT22;31343;47.520;19.144;2022-10-22T00:45:43;10.80;99.90
45619;DHT22;31343;47.520;19.144;2022-10-22T00:48:20;10.80;99.90
45619;DHT22;31343;47.520;19.144;2022-10-22T00:50:53;10.90;99.90
45619;DHT22;31343;47.520;19.144;2022-10-22T00:53:49;11.00;99.90
45619;DHT22;31343;47.520;19.144;2022-10-22T00:56:19;11.00;99.90
45619;DHT22;31343;47.520;19.144;2022-10-22T00:59:05;11.00;99.90
45619;DHT22;31343;47.520;19.144;2022-10-22T01:01:31;10.90;99.90
45619;DHT22;31343;47.520;19.144;2022-10-22T01:03:58;11.00;99.90
45619;DHT22;31343;47.520;19.144;2022-10-22T01:06:30;11.00;99.90
45619;DHT22;31343;47.520;19.144;2022-10-22T01:17:02;11.00;99.90
45619;DHT22;31343;47.520;19.144;2022-10-22T01:20:09;11.00;99.90
45619;DHT22;31343;47.520;19.144;2022-10-22T01:22:54;11.00;99.90
45619;DHT22;31343;47.520;19.144;2022-10-22T01:25:33;11.00;99.90
45619;DHT22;31343;47.520;19.144;2022-10-22T01:30:54;11.00;99.90
45619;DHT22;31343;47.520;19.144;2022-10-22T01:33:22;11.00;99.90
45619;DHT22;31343;47.520;19.144;2022-10-22T01:35:51;10.90;99.90
45619;DHT22;31343;47.520;19.144;2022-10-22T01:38:20;10.90;99.90
45619;DHT22;31343;47.520;19.144;2022-10-22T01:40:49;10.90;99.90
45619;DHT22;31343;47.520;19.144;2022-10-22T01:43:15;10.90;99.90
45619;DHT22;31343;47.520;19.144;2022-10-22T01:45:57;10.90;99.90
45619;DHT22;31343;47.520;19.144;2022-10-22T01:54:58;10.90;99.90
45619;DHT22;31343;47.520;19.144;2022-10-22T01:57:41;10.90;99.90
45619;DHT22;31343;47.520;19.144;2022-10-22T02:00:12;10.90;99.90
45619;DHT22;31343;47.520;19.144;2022-10-22T02:08:08;10.90;99.90
45619;DHT22;31343;47.520;19.144;2022-10-22T02:10:33;10.70;99.90
45619;DHT22;31343;47.520;19.144;2022-10-22T02:13:02;10.70;99.90
45619;DHT22;31343;47.520;19.144;2022-10-22T02:15:29;10.70;99.90
45619;DHT22;31343;47.520;19.144;2022-10-22T02:17:59;10.70;99.90
45619;DHT22;31343;47.520;19.144;2022-10-22T02:20:28;10.60;99.90
45619;DHT22;31343;47.520;19.144;2022-10-22T02:22:55;10.60;99.90
45619;DHT22;31343;47.520;19.144;2022-10-22T02:25:22;10.70;99.90
45619;DHT22;31343;47.520;19.144;2022-10-22T02:28:07;10.70;99.90
45619;DHT22;31343;47.520;19.144;2022-10-22T02:30:38;10.60;99.90
45619;DHT22;31343;47.520;19.144;2022-10-22T02:33:10;10.60;99.90
45619;DHT22;31343;47.520;19.144;2022-10-22T02:35:39;10.60;99.90
45619;DHT22;31343;47.520;19.144;2022-10-22T02:38:06;10.60;99.90
45619;DHT22;31343;47.520;19.144;2022-10-22T02:40:32;10.50;99.90
45619;DHT22;31343;47.520;19.144;2022-10-22T02:42:58;10.50;99.90
45619;DHT22;31343;47.520;19.144;2022-10-22T02:45:24;10.50;99.90
45619;DHT22;31343;47.520;19.144;2022-10-22T02:47:50;10.60;99.90
45619;DHT22;31343;47.520;19.144;2022-10-22T02:50:16;10.50;99.90
45619;DHT22;31343;47.520;19.144;2022-10-22T02:52:42;10.40;99.90
45619;DHT22;31343;47.520;19.144;2022-10-22T02:55:08;10.30;99.90
45619;DHT22;31343;47.520;19.144;2022-10-22T02:57:34;10.30;99.90
45619;DHT22;31343;47.520;19.144;2022-10-22T03:00:00;10.30;99.90
45619;DHT22;31343;47.520;19.144;2022-10-22T03:02:25;10.30;99.90
45619;DHT22;31343;47.520;19.144;2022-10-22T03:04:51;10.20;99.90
45619;DHT22;31343;47.520;19.144;2022-10-22T03:07:16;10.00;99.90
45619;DHT22;31343;47.520;19.144;2022-10-22T03:09:42;9.90;99.90
45619;DHT22;31343;47.520;19.144;2022-10-22T03:12:08;9.80;99.90
45619;DHT22;31343;47.520;19.144;2022-10-22T03:14:34;9.80;99.90
45619;DHT22;31343;47.520;19.144;2022-10-22T03:17:00;9.80;99.90
45619;DHT22;31343;47.520;19.144;2022-10-22T03:19:25;9.80;99.90
45619;DHT22;31343;47.520;19.144;2022-10-22T03:22:19;9.80;99.90
45619;DHT22;31343;47.520;19.144;2022-10-22T03:24:49;9.80;99.90
45619;DHT22;31343;47.520;19.144;2022-10-22T03:27:17;9.80;99.90
45619;DHT22;31343;47.520;19.144;2022-10-22T03:29:44;9.80;99.90
45619;DHT22;31343;47.520;19.144;2022-10-22T03:32:12;9.70;99.90
45619;DHT22;31343;47.520;19.144;2022-10-22T03:34:37;9.60;99.90
45619;DHT22;31343;47.520;19.144;2022-10-22T03:37:03;9.60;99.90
45619;DHT22;31343;47.520;19.144;2022-10-22T03:39:31;9.60;99.90
45619;DHT22;31343;47.520;19.144;2022-10-22T03:41:57;9.50;99.90
45619;DHT22;31343;47.520;19.144;2022-10-22T03:44:23;9.40;99.90
45619;DHT22;31343;47.520;19.144;2022-10-22T03:46:49;9.40;99.90
45619;DHT22;31343;47.520;19.144;2022-10-22T03:49:15;9.50;99.90
45619;DHT22;31343;47.520;19.144;2022-10-22T03:51:41;9.50;99.90
45619;DHT22;31343;47.520;19.144;2022-10-22T03:54:07;9.40;99.90
45619;DHT22;31343;47.520;19.144;2022-10-22T03:56:33;9.40;99.90
45619;DHT22;31343;47.520;19.144;2022-10-22T03:58:59;9.40;99.90
45619;DHT22;31343;47.520;19.144;2022-10-22T04:01:26;9.30;99.90
45619;DHT22;31343;47.520;19.144;2022-10-22T04:03:52;9.20;99.90
45619;DHT22;31343;47.520;19.144;2022-10-22T04:06:18;9.20;99.90
45619;DHT22;31343;47.520;19.144;2022-10-22T04:08:45;9.20;99.90
45619;DHT22;31343;47.520;19.144;2022-10-22T04:11:11;9.30;99.90
45619;DHT22;31343;47.520;19.144;2022-10-22T04:13:37;9.30;99.90
45619;DHT22;31343;47.520;19.144;2022-10-22T04:18:33;9.30;99.90
45619;DHT22;31343;47.520;19.144;2022-10-22T04:20:59;9.30;99.90
45619;DHT22;31343;47.520;19.144;2022-10-22T04:23:26;9.20;99.90
45619;DHT22;31343;47.520;19.144;2022-10-22T04:26:01;9.20;99.90
45619;DHT22;31343;47.520;19.144;2022-10-22T04:28:27;9.20;99.90
45619;DHT22;31343;47.520;19.144;2022-10-22T04:30:53;9.10;99.90
45619;DHT22;31343;47.520;19.144;2022-10-22T04:33:20;9.10;99.90
45619;DHT22;31343;47.520;19.144;2022-10-22T04:35:46;9.10;99.90
45619;DHT22;31343;47.520;19.144;2022-10-22T04:38:12;9.10;99.90
45619;DHT22;31343;47.520;19.144;2022-10-22T04:40:37;9.10;99.90
45619;DHT22;31343;47.520;19.144;2022-10-22T04:43:03;9.20;99.90
45619;DHT22;31343;47.520;19.144;2022-10-22T04:45:29;9.10;99.90
45619;DHT22;31343;47.520;19.144;2022-10-22T04:47:55;9.20;99.90
45619;DHT22;31343;47.520;19.144;2022-10-22T04:50:21;9.10;99.90
45619;DHT22;31343;47.520;19.144;2022-10-22T04:52:46;9.10;99.90
45619;DHT22;31343;47.520;19.144;2022-10-22T04:55:12;9.20;99.90
45619;DHT22;31343;47.520;19.144;2022-10-22T04:57:38;9.10;99.90
45619;DHT22;31343;47.520;19.144;2022-10-22T05:00:05;9.10;99.90
45619;DHT22;31343;47.520;19.144;2022-10-22T05:02:31;9.10;99.90
45619;DHT22;31343;47.520;19.144;2022-10-22T05:04:56;9.10;99.90
45619;DHT22;31343;47.520;19.144;2022-10-22T05:07:22;9.00;99.90
45619;DHT22;31343;47.520;19.144;2022-10-22T05:09:48;9.00;99.90
45619;DHT22;31343;47.520;19.144;2022-10-22T05:12:15;8.90;99.90
45619;DHT22;31343;47.520;19.144;2022-10-22T05:14:41;8.80;99.90
45619;DHT22;31343;47.520;19.144;2022-10-22T05:17:07;8.90;99.90
45619;DHT22;31343;47.520;19.144;2022-10-22T05:19:33;8.90;99.90
45619;DHT22;31343;47.520;19.144;2022-10-22T05:22:00;8.80;99.90
45619;DHT22;31343;47.520;19.144;2022-10-22T05:24:27;8.90;99.90
45619;DHT22;31343;47.520;19.144;2022-10-22T05:26:55;8.80;99.90
45619;DHT22;31343;47.520;19.144;2022-10-22T05:29:21;8.90;99.90
45619;DHT22;31343;47.520;19.144;2022-10-22T05:31:48;8.90;99.90
45619;DHT22;31343;47.520;19.144;2022-10-22T05:34:14;9.00;99.90
45619;DHT22;31343;47.520;19.144;2022-10-22T05:36:40;9.10;99.90
45619;DHT22;31343;47.520;19.144;2022-10-22T05:39:06;9.10;99.90
45619;DHT22;31343;47.520;19.144;2022-10-22T05:41:33;9.20;99.90
45619;DHT22;31343;47.520;19.144;2022-10-22T05:44:00;9.20;99.90
45619;DHT22;31343;47.520;19.144;2022-10-22T05:46:28;9.10;99.90
45619;DHT22;31343;47.520;19.144;2022-10-22T05:49:00;9.20;99.90
45619;DHT22;31343;47.520;19.144;2022-10-22T05:51:28;9.30;99.90
45619;DHT22;31343;47.520;19.144;2022-10-22T05:53:55;9.40;99.90
45619;DHT22;31343;47.520;19.144;2022-10-22T05:56:24;9.50;99.90
45619;DHT22;31343;47.520;19.144;2022-10-22T05:58:50;9.50;99.90
45619;DHT22;31343;47.520;19.144;2022-10-22T06:01:19;9.60;99.90
45619;DHT22;31343;47.520;19.144;2022-10-22T06:03:45;9.70;99.90
45619;DHT22;31343;47.520;19.144;2022-10-22T06:08:48;9.90;99.90
45619;DHT22;31343;47.520;19.144;2022-10-22T06:11:16;10.10;99.90
45619;DHT22;31343;47.520;19.144;2022-10-22T06:13:43;10.20;99.90
45619;DHT22;31343;47.520;19.144;2022-10-22T06:16:09;10.30;99.90
45619;DHT22;31343;47.520;19.144;2022-10-22T06:18:35;10.40;99.90
45619;DHT22;31343;47.520;19.144;2022-10-22T06:21:09;10.50;99.90
45619;DHT22;31343;47.520;19.144;2022-10-22T06:23:36;10.60;99.90
45619;DHT22;31343;47.520;19.144;2022-10-22T06:26:02;10.70;99.90
45619;DHT22;31343;47.520;19.144;2022-10-22T06:28:28;10.80;99.90
45619;DHT22;31343;47.520;19.144;2022-10-22T06:30:56;10.80;99.90
45619;DHT22;31343;47.520;19.144;2022-10-22T06:33:23;10.90;99.90
45619;DHT22;31343;47.520;19.144;2022-10-22T06:35:49;11.20;99.90
45619;DHT22;31343;47.520;19.144;2022-10-22T06:38:14;11.50;99.90
45619;DHT22;31343;47.520;19.144;2022-10-22T06:40:40;11.90;99.90
45619;DHT22;31343;47.520;19.144;2022-10-22T06:43:08;12.50;99.90
45619;DHT22;31343;47.520;19.144;2022-10-22T06:45:34;13.10;99.90
45619;DHT22;31343;47.520;19.144;2022-10-22T06:48:00;13.30;99.90
45619;DHT22;31343;47.520;19.144;2022-10-22T06:50:25;14.00;99.90
45619;DHT22;31343;47.520;19.144;2022-10-22T06:52:51;14.30;99.90
45619;DHT22;31343;47.520;19.144;2022-10-22T06:55:17;14.30;99.90
45619;DHT22;31343;47.520;19.144;2022-10-22T06:57:42;14.30;99.90
45619;DHT22;31343;47.520;19.144;2022-10-22T07:00:09;14.50;99.90
45619;DHT22;31343;47.520;19.144;2022-10-22T07:02:34;14.70;99.90
45619;DHT22;31343;47.520;19.144;2022-10-22T07:05:00;14.90;99.90
45619;DHT22;31343;47.520;19.144;2022-10-22T07:07:26;14.90;99.80
45619;DHT22;31343;47.520;19.144;2022-10-22T07:09:51;15.20;99.50
45619;DHT22;31343;47.520;19.144;2022-10-22T07:12:17;15.10;99.30
45619;DHT22;31343;47.520;19.144;2022-10-22T07:14:43;14.80;99.30
45619;DHT22;31343;47.520;19.144;2022-10-22T07:17:08;14.50;99.90
45619;DHT22;31343;47.520;19.144;2022-10-22T07:19:34;14.40;99.90
45619;DHT22;31343;47.520;19.144;2022-10-22T07:22:00;14.30;99.90
45619;DHT22;31343;47.520;19.144;2022-10-22T07:24:26;13.80;99.90
45619;DHT22;31343;47.520;19.144;2022-10-22T07:26:52;13.80;99.90
45619;DHT22;31343;47.520;19.144;2022-10-22T07:29:17;13.70;99.90
45619;DHT22;31343;47.520;19.144;2022-10-22T07:31:43;13.60;99.90
45619;DHT22;31343;47.520;19.144;2022-10-22T07:34:09;13.50;99.90
45619;DHT22;31343;47.520;19.144;2022-10-22T07:36:35;13.50;99.90
45619;DHT22;31343;47.520;19.144;2022-10-22T07:39:02;13.70;99.90
45619;DHT22;31343;47.520;19.144;2022-10-22T07:41:29;14.00;99.90
45619;DHT22;31343;47.520;19.144;2022-10-22T07:43:55;14.20;99.90
45619;DHT22;31343;47.520;19.144;2022-10-22T07:46:21;14.60;99.90
45619;DHT22;31343;47.520;19.144;2022-10-22T07:48:47;14.80;99.90
45619;DHT22;31343;47.520;19.144;2022-10-22T07:51:13;15.00;99.40
45619;DHT22;31343;47.520;19.144;2022-10-22T07:53:40;15.10;99.90
45619;DHT22;31343;47.520;19.144;2022-10-22T07:56:06;15.20;99.00
45619;DHT22;31343;47.520;19.144;2022-10-22T07:58:32;15.30;98.30
45619;DHT22;31343;47.520;19.144;2022-10-22T08:00:59;15.30;98.40
45619;DHT22;31343;47.520;19.144;2022-10-22T08:03:27;15.40;97.80
45619;DHT22;31343;47.520;19.144;2022-10-22T08:05:54;15.40;97.80
45619;DHT22;31343;47.520;19.144;2022-10-22T08:08:20;15.30;98.00
45619;DHT22;31343;47.520;19.144;2022-10-22T08:10:49;15.40;98.00
45619;DHT22;31343;47.520;19.144;2022-10-22T08:13:16;15.50;97.40
45619;DHT22;31343;47.520;19.144;2022-10-22T08:15:42;15.40;97.80
45619;DHT22;31343;47.520;19.144;2022-10-22T08:18:08;15.30;97.30
45619;DHT22;31343;47.520;19.144;2022-10-22T08:20:35;14.90;97.70
45619;DHT22;31343;47.520;19.144;2022-10-22T08:23:01;14.90;98.00
45619;DHT22;31343;47.520;19.144;2022-10-22T08:25:27;14.50;98.40
45619;DHT22;31343;47.520;19.144;2022-10-22T08:27:53;14.50;98.60
45619;DHT22;31343;47.520;19.144;2022-10-22T08:30:19;14.80;99.00
45619;DHT22;31343;47.520;19.144;2022-10-22T08:32:44;15.10;98.20
45619;DHT22;31343;47.520;19.144;2022-10-22T08:35:10;15.20;97.60
45619;DHT22;31343;47.520;19.144;2022-10-22T08:37:36;15.50;98.10
45619;DHT22;31343;47.520;19.144;2022-10-22T08:40:03;15.80;97.60
45619;DHT22;31343;47.520;19.144;2022-10-22T08:50:49;15.00;97.60
45619;DHT22;31343;47.520;19.144;2022-10-22T08:53:19;15.00;98.10
45619;DHT22;31343;47.520;19.144;2022-10-22T08:55:48;14.90;98.30
45619;DHT22;31343;47.520;19.144;2022-10-22T09:01:05;15.10;99.00
45619;DHT22;31343;47.520;19.144;2022-10-22T09:03:50;15.10;98.60
45619;DHT22;31343;47.520;19.144;2022-10-22T09:06:27;15.10;99.20
45619;DHT22;31343;47.520;19.144;2022-10-22T09:08:56;15.20;99.20
45619;DHT22;31343;47.520;19.144;2022-10-22T09:11:32;15.40;99.30
45619;DHT22;31343;47.520;19.144;2022-10-22T09:14:00;15.50;99.10
45619;DHT22;31343;47.520;19.144;2022-10-22T09:16:53;15.50;98.40
45619;DHT22;31343;47.520;19.144;2022-10-22T09:22:33;15.40;98.60
45619;DHT22;31343;47.520;19.144;2022-10-22T09:25:25;15.30;98.30
45619;DHT22;31343;47.520;19.144;2022-10-22T09:27:51;15.20;98.80
45619;DHT22;31343;47.520;19.144;2022-10-22T09:30:24;15.20;99.40
45619;DHT22;31343;47.520;19.144;2022-10-22T09:33:00;15.20;99.90
45619;DHT22;31343;47.520;19.144;2022-10-22T09:35:27;15.30;99.70
45619;DHT22;31343;47.520;19.144;2022-10-22T09:38:06;15.30;99.70
45619;DHT22;31343;47.520;19.144;2022-10-22T09:40:45;15.40;99.60
45619;DHT22;31343;47.520;19.144;2022-10-22T09:43:13;15.50;99.70
45619;DHT22;31343;47.520;19.144;2022-10-22T09:45:39;15.60;99.90
45619;DHT22;31343;47.520;19.144;2022-10-22T09:48:20;15.60;99.40
45619;DHT22;31343;47.520;19.144;2022-10-22T09:51:02;15.60;98.90
45619;DHT22;31343;47.520;19.144;2022-10-22T09:53:36;15.60;98.90
45619;DHT22;31343;47.520;19.144;2022-10-22T09:56:17;15.50;99.00
45619;DHT22;31343;47.520;19.144;2022-10-22T09:58:48;15.50;98.90
45619;DHT22;31343;47.520;19.144;2022-10-22T10:01:18;15.60;99.00
45619;DHT22;31343;47.520;19.144;2022-10-22T10:03:47;15.70;98.80
45619;DHT22;31343;47.520;19.144;2022-10-22T10:06:18;15.70;99.00
45619;DHT22;31343;47.520;19.144;2022-10-22T10:08:45;15.80;99.60
45619;DHT22;31343;47.520;19.144;2022-10-22T10:11:31;15.90;99.10
45619;DHT22;31343;47.520;19.144;2022-10-22T10:27:48;16.00;98.20
45619;DHT22;31343;47.520;19.144;2022-10-22T10:30:21;15.70;98.70
45619;DHT22;31343;47.520;19.144;2022-10-22T10:36:01;15.50;99.10
45619;DHT22;31343;47.520;19.144;2022-10-22T10:39:01;15.50;99.40
45619;DHT22;31343;47.520;19.144;2022-10-22T10:41:37;15.60;99.50
45619;DHT22;31343;47.520;19.144;2022-10-22T10:49:53;15.70;99.80
45619;DHT22;31343;47.520;19.144;2022-10-22T10:52:42;15.70;99.70
45619;DHT22;31343;47.520;19.144;2022-10-22T10:58:24;15.90;99.60
45619;DHT22;31343;47.520;19.144;2022-10-22T11:00:59;15.80;99.70
45619;DHT22;31343;47.520;19.144;2022-10-22T11:06:38;15.70;99.90
45619;DHT22;31343;47.520;19.144;2022-10-22T11:09:22;15.70;99.90
45619;DHT22;31343;47.520;19.144;2022-10-22T11:12:00;15.80;99.90
45619;DHT22;31343;47.520;19.144;2022-10-22T11:14:34;16.00;99.90
45619;DHT22;31343;47.520;19.144;2022-10-22T11:17:02;16.10;99.90
45619;DHT22;31343;47.520;19.144;2022-10-22T11:19:57;16.30;99.50
45619;DHT22;31343;47.520;19.144;2022-10-22T11:22:27;16.30;99.30
45619;DHT22;31343;47.520;19.144;2022-10-22T11:25:22;16.30;99.40
45619;DHT22;31343;47.520;19.144;2022-10-22T11:27:51;16.30;99.20
45619;DHT22;31343;47.520;19.144;2022-10-22T11:30:21;16.30;99.10
45619;DHT22;31343;47.520;19.144;2022-10-22T11:32:57;16.30;99.00
45619;DHT22;31343;47.520;19.144;2022-10-22T11:35:29;16.30;99.20
45619;DHT22;31343;47.520;19.144;2022-10-22T11:37:56;16.30;99.70
45619;DHT22;31343;47.520;19.144;2022-10-22T11:43:07;16.30;99.50
45619;DHT22;31343;47.520;19.144;2022-10-22T11:45:41;16.40;99.50
45619;DHT22;31343;47.520;19.144;2022-10-22T11:50:58;16.30;99.60
45619;DHT22;31343;47.520;19.144;2022-10-22T11:53:32;16.40;99.90
45619;DHT22;31343;47.520;19.144;2022-10-22T12:17:08;17.40;99.10
45619;DHT22;31343;47.520;19.144;2022-10-22T12:19:38;17.50;99.90
45619;DHT22;31343;47.520;19.144;2022-10-22T12:22:25;17.60;99.00
45619;DHT22;31343;47.520;19.144;2022-10-22T12:24:58;17.60;99.40
45619;DHT22;31343;47.520;19.144;2022-10-22T12:27:39;17.60;99.00
45619;DHT22;31343;47.520;19.144;2022-10-22T12:30:20;17.60;98.50
45619;DHT22;31343;47.520;19.144;2022-10-22T12:33:21;17.50;98.50
45619;DHT22;31343;47.520;19.144;2022-10-22T12:35:48;17.40;98.60
45619;DHT22;31343;47.520;19.144;2022-10-22T12:38:26;17.30;98.80
45619;DHT22;31343;47.520;19.144;2022-10-22T12:40:54;17.30;99.60
45619;DHT22;31343;47.520;19.144;2022-10-22T12:43:28;17.20;99.70
45619;DHT22;31343;47.520;19.144;2022-10-22T12:45:55;17.20;99.80
45619;DHT22;31343;47.520;19.144;2022-10-22T12:48:29;17.10;99.70
45619;DHT22;31343;47.520;19.144;2022-10-22T12:51:01;17.00;99.80
45619;DHT22;31343;47.520;19.144;2022-10-22T12:53:49;17.00;99.80
45619;DHT22;31343;47.520;19.144;2022-10-22T12:56:25;17.00;99.90
45619;DHT22;31343;47.520;19.144;2022-10-22T12:58:59;16.90;99.90
45619;DHT22;31343;47.520;19.144;2022-10-22T13:01:28;16.90;99.90
45619;DHT22;31343;47.520;19.144;2022-10-22T13:04:34;16.90;99.90
45619;DHT22;31343;47.520;19.144;2022-10-22T13:09:42;16.70;99.90
45619;DHT22;31343;47.520;19.144;2022-10-22T13:12:10;16.60;99.90
45619;DHT22;31343;47.520;19.144;2022-10-22T13:14:42;16.50;99.90
45619;DHT22;31343;47.520;19.144;2022-10-22T13:22:37;16.50;99.90
45619;DHT22;31343;47.520;19.144;2022-10-22T13:25:26;16.40;99.90
45619;DHT22;31343;47.520;19.144;2022-10-22T13:33:36;16.30;99.90
45619;DHT22;31343;47.520;19.144;2022-10-22T13:35:38;16.30;99.90
45619;DHT22;31343;47.520;19.144;2022-10-22T13:38:14;16.30;99.90
45619;DHT22;31343;47.520;19.144;2022-10-22T13:40:41;16.30;99.90
45619;DHT22;31343;47.520;19.144;2022-10-22T13:43:07;16.20;99.90
45619;DHT22;31343;47.520;19.144;2022-10-22T13:45:32;16.20;99.90
45619;DHT22;31343;47.520;19.144;2022-10-22T13:47:58;16.20;99.90
45619;DHT22;31343;47.520;19.144;2022-10-22T13:50:24;16.20;99.90
45619;DHT22;31343;47.520;19.144;2022-10-22T13:52:53;16.20;99.90
45619;DHT22;31343;47.520;19.144;2022-10-22T13:57:47;16.20;99.90
45619;DHT22;31343;47.520;19.144;2022-10-22T14:00:18;16.10;99.90
45619;DHT22;31343;47.520;19.144;2022-10-22T14:02:46;16.10;99.90
45619;DHT22;31343;47.520;19.144;2022-10-22T14:05:12;16.00;99.90
45619;DHT22;31343;47.520;19.144;2022-10-22T14:07:38;16.00;99.90
45619;DHT22;31343;47.520;19.144;2022-10-22T14:10:18;16.00;99.90
45619;DHT22;31343;47.520;19.144;2022-10-22T14:12:44;15.90;99.90
45619;DHT22;31343;47.520;19.144;2022-10-22T14:15:12;15.90;99.90
45619;DHT22;31343;47.520;19.144;2022-10-22T14:17:40;15.90;99.90
45619;DHT22;31343;47.520;19.144;2022-10-22T14:20:16;15.90;99.90
45619;DHT22;31343;47.520;19.144;2022-10-22T14:22:45;15.80;99.90
45619;DHT22;31343;47.520;19.144;2022-10-22T14:25:19;15.80;99.90
45619;DHT22;31343;47.520;19.144;2022-10-22T14:27:45;15.80;99.90
45619;DHT22;31343;47.520;19.144;2022-10-22T14:30:18;15.80;99.90
45619;DHT22;31343;47.520;19.144;2022-10-22T14:32:44;15.80;99.90
45619;DHT22;31343;47.520;19.144;2022-10-22T14:35:18;15.70;99.90
45619;DHT22;31343;47.520;19.144;2022-10-22T14:37:44;15.70;99.90
45619;DHT22;31343;47.520;19.144;2022-10-22T14:40:13;15.60;99.90
45619;DHT22;31343;47.520;19.144;2022-10-22T14:42:41;15.60;99.90
45619;DHT22;31343;47.520;19.144;2022-10-22T14:45:19;15.50;99.90
45619;DHT22;31343;47.520;19.144;2022-10-22T14:47:46;15.50;99.90
45619;DHT22;31343;47.520;19.144;2022-10-22T14:50:12;15.50;99.90
45619;DHT22;31343;47.520;19.144;2022-10-22T14:52:39;15.50;99.90
45619;DHT22;31343;47.520;19.144;2022-10-22T14:55:07;15.50;99.90
45619;DHT22;31343;47.520;19.144;2022-10-22T14:57:32;15.50;99.90
45619;DHT22;31343;47.520;19.144;2022-10-22T14:59:58;15.40;99.90
45619;DHT22;31343;47.520;19.144;2022-10-22T15:02:25;15.50;99.90
45619;DHT22;31343;47.520;19.144;2022-10-22T15:04:50;15.40;99.90
45619;DHT22;31343;47.520;19.144;2022-10-22T15:07:16;15.40;99.90
45619;DHT22;31343;47.520;19.144;2022-10-22T15:09:42;15.40;99.90
45619;DHT22;31343;47.520;19.144;2022-10-22T15:12:08;15.40;99.90
45619;DHT22;31343;47.520;19.144;2022-10-22T15:14:33;15.30;99.90
45619;DHT22;31343;47.520;19.144;2022-10-22T15:16:59;15.30;99.90
45619;DHT22;31343;47.520;19.144;2022-10-22T15:19:25;15.30;99.90
45619;DHT22;31343;47.520;19.144;2022-10-22T15:21:50;15.20;99.90
45619;DHT22;31343;47.520;19.144;2022-10-22T15:24:16;15.30;99.90
45619;DHT22;31343;47.520;19.144;2022-10-22T15:26:42;15.30;99.90
45619;DHT22;31343;47.520;19.144;2022-10-22T15:29:09;15.20;99.90
45619;DHT22;31343;47.520;19.144;2022-10-22T15:31:49;15.20;99.90
45619;DHT22;31343;47.520;19.144;2022-10-22T15:34:25;15.10;99.90
45619;DHT22;31343;47.520;19.144;2022-10-22T15:36:54;15.10;99.90
45619;DHT22;31343;47.520;19.144;2022-10-22T15:39:20;15.10;99.90
45619;DHT22;31343;47.520;19.144;2022-10-22T15:41:48;15.00;99.90
45619;DHT22;31343;47.520;19.144;2022-10-22T15:44:19;15.00;99.90
45619;DHT22;31343;47.520;19.144;2022-10-22T15:46:45;14.90;99.90
45619;DHT22;31343;47.520;19.144;2022-10-22T15:49:11;14.90;99.90
45619;DHT22;31343;47.520;19.144;2022-10-22T15:51:37;14.90;99.90
45619;DHT22;31343;47.520;19.144;2022-10-22T15:54:03;14.80;99.90
45619;DHT22;31343;47.520;19.144;2022-10-22T15:56:29;14.80;99.90
45619;DHT22;31343;47.520;19.144;2022-10-22T15:58:56;14.80;99.90
45619;DHT22;31343;47.520;19.144;2022-10-22T16:01:23;14.60;99.90
45619;DHT22;31343;47.520;19.144;2022-10-22T16:03:50;14.60;99.90
45619;DHT22;31343;47.520;19.144;2022-10-22T16:06:28;14.50;99.90
45619;DHT22;31343;47.520;19.144;2022-10-22T16:08:56;14.50;99.90
45619;DHT22;31343;47.520;19.144;2022-10-22T16:11:23;14.40;99.90
45619;DHT22;31343;47.520;19.144;2022-10-22T16:13:55;14.30;99.90
45619;DHT22;31343;47.520;19.144;2022-10-22T16:16:26;14.20;99.90
45619;DHT22;31343;47.520;19.144;2022-10-22T16:18:52;14.10;99.90
45619;DHT22;31343;47.520;19.144;2022-10-22T16:21:21;14.10;99.90
45619;DHT22;31343;47.520;19.144;2022-10-22T16:23:47;14.00;99.90
45619;DHT22;31343;47.520;19.144;2022-10-22T16:26:14;14.00;99.90
45619;DHT22;31343;47.520;19.144;2022-10-22T16:28:40;13.90;99.90
45619;DHT22;31343;47.520;19.144;2022-10-22T16:31:09;13.80;99.90
45619;DHT22;31343;47.520;19.144;2022-10-22T16:33:39;13.80;99.90
45619;DHT22;31343;47.520;19.144;2022-10-22T16:36:07;13.80;99.90
45619;DHT22;31343;47.520;19.144;2022-10-22T16:38:33;13.80;99.90
45619;DHT22;31343;47.520;19.144;2022-10-22T16:41:22;13.80;99.90
45619;DHT22;31343;47.520;19.144;2022-10-22T16:43:53;13.70;99.90
45619;DHT22;31343;47.520;19.144;2022-10-22T16:46:21;13.50;99.90
45619;DHT22;31343;47.520;19.144;2022-10-22T16:48:49;13.50;99.90
45619;DHT22;31343;47.520;19.144;2022-10-22T16:51:18;13.50;99.90
45619;DHT22;31343;47.520;19.144;2022-10-22T16:53:46;13.40;99.90
45619;DHT22;31343;47.520;19.144;2022-10-22T16:56:13;13.50;99.90
45619;DHT22;31343;47.520;19.144;2022-10-22T16:58:47;13.40;99.90
45619;DHT22;31343;47.520;19.144;2022-10-22T17:01:14;13.40;99.90
45619;DHT22;31343;47.520;19.144;2022-10-22T17:03:40;13.30;99.90
45619;DHT22;31343;47.520;19.144;2022-10-22T17:06:08;13.30;99.90
45619;DHT22;31343;47.520;19.144;2022-10-22T17:08:34;13.30;99.90
45619;DHT22;31343;47.520;19.144;2022-10-22T17:11:07;13.10;99.90
45619;DHT22;31343;47.520;19.144;2022-10-22T17:13:34;13.20;99.90
45619;DHT22;31343;47.520;19.144;2022-10-22T17:16:01;13.10;99.90
45619;DHT22;31343;47.520;19.144;2022-10-22T17:18:29;13.00;99.90
45619;DHT22;31343;47.520;19.144;2022-10-22T17:20:57;12.90;99.90
45619;DHT22;31343;47.520;19.144;2022-10-22T17:23:24;12.80;99.90
45619;DHT22;31343;47.520;19.144;2022-10-22T17:25:57;12.70;99.90
45619;DHT22;31343;47.520;19.144;2022-10-22T17:28:23;12.70;99.90